sensor_id;sensor_type;location;lat;lon;timestamp;P1;durP1;ratioP1;P2;durP2;ratioP2
34765;SDS011;20984;43.508;1.504;2022-08-21T00:02:26;1.90;;;1.30;;
34765;SDS011;20984;43.508;1.504;2022-08-21T00:04:53;3.08;;;1.27;;
34765;SDS011;20984;43.508;1.504;2022-08-21T00:07:19;3.85;;;1.25;;
34765;SDS011;20984;43.508;1.504;2022-08-21T00:09:46;3.40;;;1.40;;
34765;SDS011;20984;43.508;1.504;2022-08-21T00:12:12;2.42;;;1.27;;
34765;SDS011;20984;43.508;1.504;2022-08-21T00:14:38;1.80;;;1.15;;
34765;SDS011;20984;43.508;1.504;2022-08-21T00:17:04;2.30;;;1.20;;
34765;SDS011;20984;43.508;1.504;2022-08-21T00:19:31;2.72;;;1.30;;
34765;SDS011;20984;43.508;1.504;2022-08-21T00:21:57;1.20;;;1.10;;
34765;SDS011;20984;43.508;1.504;2022-08-21T00:24:24;1.92;;;1.08;;
34765;SDS011;20984;43.508;1.504;2022-08-21T00:26:50;3.93;;;1.60;;
34765;SDS011;20984;43.508;1.504;2022-08-21T00:29:16;1.60;;;1.30;;
34765;SDS011;20984;43.508;1.504;2022-08-21T00:31:42;1.98;;;1.38;;
34765;SDS011;20984;43.508;1.504;2022-08-21T00:34:09;3.15;;;1.10;;
34765;SDS011;20984;43.508;1.504;2022-08-21T00:36:35;1.83;;;1.35;;
34765;SDS011;20984;43.508;1.504;2022-08-21T00:39:02;2.58;;;1.33;;
34765;SDS011;20984;43.508;1.504;2022-08-21T00:41:30;1.63;;;1.10;;
34765;SDS011;20984;43.508;1.504;2022-08-21T00:43:56;1.75;;;1.10;;
34765;SDS011;20984;43.508;1.504;2022-08-21T00:46:22;2.28;;;1.40;;
34765;SDS011;20984;43.508;1.504;2022-08-21T00:48:48;3.30;;;1.30;;
34765;SDS011;20984;43.508;1.504;2022-08-21T00:51:19;2.88;;;1.33;;
34765;SDS011;20984;43.508;1.504;2022-08-21T00:53:48;2.13;;;1.20;;
34765;SDS011;20984;43.508;1.504;2022-08-21T00:56:18;6.18;;;1.42;;
34765;SDS011;20984;43.508;1.504;2022-08-21T00:58:46;3.60;;;1.27;;
34765;SDS011;20984;43.508;1.504;2022-08-21T01:01:13;1.92;;;1.30;;
34765;SDS011;20984;43.508;1.504;2022-08-21T01:03:39;1.75;;;1.40;;
34765;SDS011;20984;43.508;1.504;2022-08-21T01:06:06;2.10;;;1.48;;
34765;SDS011;20984;43.508;1.504;2022-08-21T01:08:34;3.65;;;1.40;;
34765;SDS011;20984;43.508;1.504;2022-08-21T01:11:01;2.17;;;1.33;;
34765;SDS011;20984;43.508;1.504;2022-08-21T01:13:28;2.40;;;1.35;;
34765;SDS011;20984;43.508;1.504;2022-08-21T01:15:56;1.70;;;1.20;;
34765;SDS011;20984;43.508;1.504;2022-08-21T01:18:26;3.60;;;1.60;;
34765;SDS011;20984;43.508;1.504;2022-08-21T01:20:58;1.73;;;1.40;;
34765;SDS011;20984;43.508;1.504;2022-08-21T01:23:31;3.33;;;1.40;;
34765;SDS011;20984;43.508;1.504;2022-08-21T01:25:59;2.25;;;1.75;;
34765;SDS011;20984;43.508;1.504;2022-08-21T01:28:25;2.90;;;1.92;;
34765;SDS011;20984;43.508;1.504;2022-08-21T01:30:55;4.85;;;1.85;;
34765;SDS011;20984;43.508;1.504;2022-08-21T01:33:21;1.67;;;1.35;;
34765;SDS011;20984;43.508;1.504;2022-08-21T01:35:49;3.60;;;1.42;;
34765;SDS011;20984;43.508;1.504;2022-08-21T01:38:15;3.03;;;1.85;;
34765;SDS011;20984;43.508;1.504;2022-08-21T01:40:41;2.00;;;1.60;;
34765;SDS011;20984;43.508;1.504;2022-08-21T01:43:07;2.08;;;1.70;;
34765;SDS011;20984;43.508;1.504;2022-08-21T01:45:33;3.60;;;1.67;;
34765;SDS011;20984;43.508;1.504;2022-08-21T01:47:58;2.33;;;1.83;;
34765;SDS011;20984;43.508;1.504;2022-08-21T01:50:24;2.45;;;1.50;;
34765;SDS011;20984;43.508;1.504;2022-08-21T01:52:50;2.50;;;1.70;;
34765;SDS011;20984;43.508;1.504;2022-08-21T01:55:18;4.22;;;1.70;;
34765;SDS011;20984;43.508;1.504;2022-08-21T01:57:44;4.85;;;1.63;;
34765;SDS011;20984;43.508;1.504;2022-08-21T02:00:12;2.42;;;1.77;;
34765;SDS011;20984;43.508;1.504;2022-08-21T02:02:41;3.92;;;1.60;;
34765;SDS011;20984;43.508;1.504;2022-08-21T02:05:08;2.35;;;1.65;;
34765;SDS011;20984;43.508;1.504;2022-08-21T02:07:43;1.77;;;1.50;;
34765;SDS011;20984;43.508;1.504;2022-08-21T02:10:13;2.38;;;1.30;;
34765;SDS011;20984;43.508;1.504;2022-08-21T02:12:41;2.00;;;1.40;;
34765;SDS011;20984;43.508;1.504;2022-08-21T02:15:07;1.80;;;1.48;;
34765;SDS011;20984;43.508;1.504;2022-08-21T02:18:07;3.17;;;1.85;;
34765;SDS011;20984;43.508;1.504;2022-08-21T02:20:32;2.03;;;1.45;;
34765;SDS011;20984;43.508;1.504;2022-08-21T02:23:04;2.40;;;1.70;;
34765;SDS011;20984;43.508;1.504;2022-08-21T02:25:31;1.80;;;1.33;;
34765;SDS011;20984;43.508;1.504;2022-08-21T02:27:57;2.83;;;1.33;;
34765;SDS011;20984;43.508;1.504;2022-08-21T02:30:28;2.85;;;1.50;;
34765;SDS011;20984;43.508;1.504;2022-08-21T02:32:56;2.13;;;1.60;;
34765;SDS011;20984;43.508;1.504;2022-08-21T02:35:22;2.08;;;1.63;;
34765;SDS011;20984;43.508;1.504;2022-08-21T02:37:52;3.78;;;1.48;;
34765;SDS011;20984;43.508;1.504;2022-08-21T02:40:21;2.92;;;1.58;;
34765;SDS011;20984;43.508;1.504;2022-08-21T02:42:50;2.67;;;1.67;;
34765;SDS011;20984;43.508;1.504;2022-08-21T02:45:16;2.58;;;1.60;;
34765;SDS011;20984;43.508;1.504;2022-08-21T02:47:50;5.75;;;1.70;;
34765;SDS011;20984;43.508;1.504;2022-08-21T02:50:20;5.68;;;1.50;;
34765;SDS011;20984;43.508;1.504;2022-08-21T02:52:52;3.28;;;1.60;;
34765;SDS011;20984;43.508;1.504;2022-08-21T02:55:19;2.53;;;1.75;;
34765;SDS011;20984;43.508;1.504;2022-08-21T02:57:46;4.88;;;1.70;;
34765;SDS011;20984;43.508;1.504;2022-08-21T03:00:13;2.10;;;1.45;;
34765;SDS011;20984;43.508;1.504;2022-08-21T03:02:39;2.63;;;1.60;;
34765;SDS011;20984;43.508;1.504;2022-08-21T03:05:07;1.95;;;1.60;;
34765;SDS011;20984;43.508;1.504;2022-08-21T03:07:35;2.20;;;1.88;;
34765;SDS011;20984;43.508;1.504;2022-08-21T03:10:03;3.05;;;1.60;;
34765;SDS011;20984;43.508;1.504;2022-08-21T03:12:30;6.30;;;1.77;;
34765;SDS011;20984;43.508;1.504;2022-08-21T03:14:55;2.10;;;1.50;;
34765;SDS011;20984;43.508;1.504;2022-08-21T03:17:23;3.13;;;1.50;;
34765;SDS011;20984;43.508;1.504;2022-08-21T03:19:49;2.00;;;1.55;;
34765;SDS011;20984;43.508;1.504;2022-08-21T03:22:15;2.15;;;1.60;;
34765;SDS011;20984;43.508;1.504;2022-08-21T03:24:42;2.60;;;1.60;;
34765;SDS011;20984;43.508;1.504;2022-08-21T03:27:08;6.10;;;1.98;;
34765;SDS011;20984;43.508;1.504;2022-08-21T03:29:34;4.38;;;1.80;;
34765;SDS011;20984;43.508;1.504;2022-08-21T03:31:59;2.75;;;1.65;;
34765;SDS011;20984;43.508;1.504;2022-08-21T03:34:25;11.57;;;1.73;;
34765;SDS011;20984;43.508;1.504;2022-08-21T03:36:51;2.15;;;1.60;;
34765;SDS011;20984;43.508;1.504;2022-08-21T03:39:17;1.85;;;1.48;;
34765;SDS011;20984;43.508;1.504;2022-08-21T03:41:43;2.47;;;1.75;;
34765;SDS011;20984;43.508;1.504;2022-08-21T03:44:09;1.95;;;1.40;;
34765;SDS011;20984;43.508;1.504;2022-08-21T03:46:35;2.78;;;1.98;;
34765;SDS011;20984;43.508;1.504;2022-08-21T03:49:01;9.70;;;1.90;;
34765;SDS011;20984;43.508;1.504;2022-08-21T03:51:26;1.98;;;1.50;;
34765;SDS011;20984;43.508;1.504;2022-08-21T03:53:52;3.38;;;1.60;;
34765;SDS011;20984;43.508;1.504;2022-08-21T03:56:19;4.13;;;1.50;;
34765;SDS011;20984;43.508;1.504;2022-08-21T03:58:45;2.88;;;1.70;;
34765;SDS011;20984;43.508;1.504;2022-08-21T04:01:11;1.85;;;1.30;;
34765;SDS011;20984;43.508;1.504;2022-08-21T04:03:37;1.67;;;1.45;;
34765;SDS011;20984;43.508;1.504;2022-08-21T04:06:04;2.30;;;1.80;;
34765;SDS011;20984;43.508;1.504;2022-08-21T04:08:30;4.18;;;1.75;;
34765;SDS011;20984;43.508;1.504;2022-08-21T04:10:56;1.90;;;1.50;;
34765;SDS011;20984;43.508;1.504;2022-08-21T04:13:23;3.88;;;1.52;;
34765;SDS011;20984;43.508;1.504;2022-08-21T04:15:51;2.47;;;1.42;;
34765;SDS011;20984;43.508;1.504;2022-08-21T04:18:17;2.42;;;1.33;;
34765;SDS011;20984;43.508;1.504;2022-08-21T04:20:43;5.68;;;1.80;;
34765;SDS011;20984;43.508;1.504;2022-08-21T04:23:11;9.45;;;1.98;;
34765;SDS011;20984;43.508;1.504;2022-08-21T04:25:37;1.88;;;1.45;;
34765;SDS011;20984;43.508;1.504;2022-08-21T04:28:03;2.42;;;1.60;;
34765;SDS011;20984;43.508;1.504;2022-08-21T04:30:29;2.45;;;1.60;;
34765;SDS011;20984;43.508;1.504;2022-08-21T04:32:55;3.15;;;2.15;;
34765;SDS011;20984;43.508;1.504;2022-08-21T04:35:23;2.50;;;1.60;;
34765;SDS011;20984;43.508;1.504;2022-08-21T04:37:50;2.38;;;1.58;;
34765;SDS011;20984;43.508;1.504;2022-08-21T04:40:16;1.90;;;1.50;;
34765;SDS011;20984;43.508;1.504;2022-08-21T04:42:54;4.00;;;1.70;;
34765;SDS011;20984;43.508;1.504;2022-08-21T04:45:30;5.00;;;1.67;;
34765;SDS011;20984;43.508;1.504;2022-08-21T04:47:58;1.83;;;1.48;;
34765;SDS011;20984;43.508;1.504;2022-08-21T04:50:34;4.53;;;1.70;;
34765;SDS011;20984;43.508;1.504;2022-08-21T04:53:07;2.47;;;1.50;;
34765;SDS011;20984;43.508;1.504;2022-08-21T04:55:36;1.90;;;1.40;;
34765;SDS011;20984;43.508;1.504;2022-08-21T04:58:04;2.03;;;1.50;;
34765;SDS011;20984;43.508;1.504;2022-08-21T05:00:32;2.03;;;1.27;;
34765;SDS011;20984;43.508;1.504;2022-08-21T05:02:58;2.30;;;1.55;;
34765;SDS011;20984;43.508;1.504;2022-08-21T05:05:27;4.03;;;1.52;;
34765;SDS011;20984;43.508;1.504;2022-08-21T05:07:54;5.53;;;1.77;;
34765;SDS011;20984;43.508;1.504;2022-08-21T05:10:21;2.30;;;1.40;;
34765;SDS011;20984;43.508;1.504;2022-08-21T05:12:48;2.38;;;1.55;;
34765;SDS011;20984;43.508;1.504;2022-08-21T05:15:14;4.90;;;1.75;;
34765;SDS011;20984;43.508;1.504;2022-08-21T05:17:42;2.80;;;1.83;;
34765;SDS011;20984;43.508;1.504;2022-08-21T05:20:11;5.25;;;2.38;;
34765;SDS011;20984;43.508;1.504;2022-08-21T05:22:38;2.63;;;1.88;;
34765;SDS011;20984;43.508;1.504;2022-08-21T05:25:05;5.18;;;1.58;;
34765;SDS011;20984;43.508;1.504;2022-08-21T05:27:32;2.65;;;1.70;;
34765;SDS011;20984;43.508;1.504;2022-08-21T05:29:58;4.00;;;1.60;;
34765;SDS011;20984;43.508;1.504;2022-08-21T05:32:24;1.95;;;1.55;;
34765;SDS011;20984;43.508;1.504;2022-08-21T05:34:50;2.00;;;1.33;;
34765;SDS011;20984;43.508;1.504;2022-08-21T05:37:16;1.92;;;1.50;;
34765;SDS011;20984;43.508;1.504;2022-08-21T05:39:42;9.07;;;1.88;;
34765;SDS011;20984;43.508;1.504;2022-08-21T05:42:08;2.05;;;1.65;;
34765;SDS011;20984;43.508;1.504;2022-08-21T05:44:34;2.85;;;1.80;;
34765;SDS011;20984;43.508;1.504;2022-08-21T05:47:04;3.55;;;1.65;;
34765;SDS011;20984;43.508;1.504;2022-08-21T05:49:34;4.07;;;1.38;;
34765;SDS011;20984;43.508;1.504;2022-08-21T05:52:01;4.50;;;1.75;;
34765;SDS011;20984;43.508;1.504;2022-08-21T05:54:28;3.15;;;1.40;;
34765;SDS011;20984;43.508;1.504;2022-08-21T05:56:54;2.90;;;1.95;;
34765;SDS011;20984;43.508;1.504;2022-08-21T05:59:20;2.50;;;1.60;;
34765;SDS011;20984;43.508;1.504;2022-08-21T06:01:46;2.20;;;1.45;;
34765;SDS011;20984;43.508;1.504;2022-08-21T06:04:12;5.03;;;1.70;;
34765;SDS011;20984;43.508;1.504;2022-08-21T06:06:38;4.63;;;1.77;;
34765;SDS011;20984;43.508;1.504;2022-08-21T06:09:05;3.42;;;1.50;;
34765;SDS011;20984;43.508;1.504;2022-08-21T06:11:31;5.50;;;1.70;;
34765;SDS011;20984;43.508;1.504;2022-08-21T06:13:58;2.75;;;1.45;;
34765;SDS011;20984;43.508;1.504;2022-08-21T06:16:24;3.45;;;1.63;;
34765;SDS011;20984;43.508;1.504;2022-08-21T06:18:51;2.22;;;1.70;;
34765;SDS011;20984;43.508;1.504;2022-08-21T06:21:17;5.45;;;2.00;;
34765;SDS011;20984;43.508;1.504;2022-08-21T06:23:43;2.65;;;1.40;;
34765;SDS011;20984;43.508;1.504;2022-08-21T06:26:10;2.05;;;1.30;;
34765;SDS011;20984;43.508;1.504;2022-08-21T06:28:37;4.30;;;1.48;;
34765;SDS011;20984;43.508;1.504;2022-08-21T06:31:09;2.17;;;1.40;;
34765;SDS011;20984;43.508;1.504;2022-08-21T06:33:48;3.45;;;1.50;;
34765;SDS011;20984;43.508;1.504;2022-08-21T06:36:15;1.83;;;1.58;;
34765;SDS011;20984;43.508;1.504;2022-08-21T06:38:42;1.90;;;1.30;;
34765;SDS011;20984;43.508;1.504;2022-08-21T06:41:08;2.17;;;1.52;;
34765;SDS011;20984;43.508;1.504;2022-08-21T06:43:34;2.05;;;1.35;;
34765;SDS011;20984;43.508;1.504;2022-08-21T06:46:00;1.88;;;1.40;;
34765;SDS011;20984;43.508;1.504;2022-08-21T06:48:25;1.75;;;1.42;;
34765;SDS011;20984;43.508;1.504;2022-08-21T06:50:51;5.32;;;1.52;;
34765;SDS011;20984;43.508;1.504;2022-08-21T06:53:19;1.88;;;1.48;;
34765;SDS011;20984;43.508;1.504;2022-08-21T06:55:46;1.90;;;1.13;;
34765;SDS011;20984;43.508;1.504;2022-08-21T06:58:13;2.72;;;1.58;;
34765;SDS011;20984;43.508;1.504;2022-08-21T07:00:40;4.18;;;1.50;;
34765;SDS011;20984;43.508;1.504;2022-08-21T07:03:16;4.35;;;1.40;;
34765;SDS011;20984;43.508;1.504;2022-08-21T07:05:53;3.25;;;1.48;;
34765;SDS011;20984;43.508;1.504;2022-08-21T07:08:19;2.05;;;1.50;;
34765;SDS011;20984;43.508;1.504;2022-08-21T07:10:46;2.17;;;1.60;;
34765;SDS011;20984;43.508;1.504;2022-08-21T07:13:13;2.55;;;1.67;;
34765;SDS011;20984;43.508;1.504;2022-08-21T07:15:39;1.48;;;1.20;;
34765;SDS011;20984;43.508;1.504;2022-08-21T07:18:05;4.78;;;1.63;;
34765;SDS011;20984;43.508;1.504;2022-08-21T07:20:31;1.70;;;1.30;;
34765;SDS011;20984;43.508;1.504;2022-08-21T07:22:58;2.22;;;1.40;;
34765;SDS011;20984;43.508;1.504;2022-08-21T07:25:27;2.17;;;1.45;;
34765;SDS011;20984;43.508;1.504;2022-08-21T07:27:52;1.40;;;1.13;;
34765;SDS011;20984;43.508;1.504;2022-08-21T07:30:18;4.40;;;1.50;;
34765;SDS011;20984;43.508;1.504;2022-08-21T07:32:44;2.42;;;1.38;;
34765;SDS011;20984;43.508;1.504;2022-08-21T07:35:10;2.03;;;1.35;;
34765;SDS011;20984;43.508;1.504;2022-08-21T07:37:36;2.33;;;1.40;;
34765;SDS011;20984;43.508;1.504;2022-08-21T07:40:02;2.17;;;1.20;;
34765;SDS011;20984;43.508;1.504;2022-08-21T07:42:29;2.58;;;1.52;;
34765;SDS011;20984;43.508;1.504;2022-08-21T07:44:55;2.13;;;1.50;;
34765;SDS011;20984;43.508;1.504;2022-08-21T07:47:21;2.40;;;1.40;;
34765;SDS011;20984;43.508;1.504;2022-08-21T07:49:46;3.90;;;1.50;;
34765;SDS011;20984;43.508;1.504;2022-08-21T07:52:12;1.67;;;1.17;;
34765;SDS011;20984;43.508;1.504;2022-08-21T07:54:38;4.22;;;1.50;;
34765;SDS011;20984;43.508;1.504;2022-08-21T07:57:04;2.95;;;1.52;;
34765;SDS011;20984;43.508;1.504;2022-08-21T07:59:30;3.22;;;1.38;;
34765;SDS011;20984;43.508;1.504;2022-08-21T08:01:55;4.90;;;1.23;;
34765;SDS011;20984;43.508;1.504;2022-08-21T08:04:21;2.05;;;1.55;;
34765;SDS011;20984;43.508;1.504;2022-08-21T08:06:47;4.78;;;1.50;;
34765;SDS011;20984;43.508;1.504;2022-08-21T08:09:13;5.80;;;1.08;;
34765;SDS011;20984;43.508;1.504;2022-08-21T08:11:41;5.45;;;1.55;;
34765;SDS011;20984;43.508;1.504;2022-08-21T08:14:10;3.20;;;1.20;;
34765;SDS011;20984;43.508;1.504;2022-08-21T08:16:36;3.15;;;1.17;;
34765;SDS011;20984;43.508;1.504;2022-08-21T08:19:02;3.97;;;1.50;;
34765;SDS011;20984;43.508;1.504;2022-08-21T08:21:28;2.20;;;1.20;;
34765;SDS011;20984;43.508;1.504;2022-08-21T08:23:55;2.42;;;1.23;;
34765;SDS011;20984;43.508;1.504;2022-08-21T08:26:21;1.73;;;1.08;;
34765;SDS011;20984;43.508;1.504;2022-08-21T08:28:47;6.55;;;1.98;;
34765;SDS011;20984;43.508;1.504;2022-08-21T08:31:13;2.22;;;1.65;;
34765;SDS011;20984;43.508;1.504;2022-08-21T08:33:39;5.85;;;1.50;;
34765;SDS011;20984;43.508;1.504;2022-08-21T08:36:05;2.03;;;1.40;;
34765;SDS011;20984;43.508;1.504;2022-08-21T08:38:37;3.67;;;1.30;;
34765;SDS011;20984;43.508;1.504;2022-08-21T08:43:53;2.35;;;1.40;;
34765;SDS011;20984;43.508;1.504;2022-08-21T08:47:03;1.98;;;1.38;;
34765;SDS011;20984;43.508;1.504;2022-08-21T08:54:38;2.10;;;1.48;;
34765;SDS011;20984;43.508;1.504;2022-08-21T08:57:10;2.95;;;1.20;;
34765;SDS011;20984;43.508;1.504;2022-08-21T08:59:46;1.42;;;0.98;;
34765;SDS011;20984;43.508;1.504;2022-08-21T09:02:15;2.33;;;1.10;;
34765;SDS011;20984;43.508;1.504;2022-08-21T09:04:42;1.52;;;1.10;;
34765;SDS011;20984;43.508;1.504;2022-08-21T09:18:25;2.33;;;1.10;;
34765;SDS011;20984;43.508;1.504;2022-08-21T09:21:06;1.80;;;1.13;;
34765;SDS011;20984;43.508;1.504;2022-08-21T09:26:34;3.47;;;1.15;;
34765;SDS011;20984;43.508;1.504;2022-08-21T09:29:10;1.45;;;0.93;;
34765;SDS011;20984;43.508;1.504;2022-08-21T09:31:37;4.97;;;1.60;;
34765;SDS011;20984;43.508;1.504;2022-08-21T09:34:07;1.88;;;0.90;;
34765;SDS011;20984;43.508;1.504;2022-08-21T09:39:05;1.42;;;0.95;;
34765;SDS011;20984;43.508;1.504;2022-08-21T09:41:33;1.88;;;1.42;;
34765;SDS011;20984;43.508;1.504;2022-08-21T09:44:01;1.70;;;0.90;;
34765;SDS011;20984;43.508;1.504;2022-08-21T09:49:01;1.88;;;1.23;;
34765;SDS011;20984;43.508;1.504;2022-08-21T09:51:30;3.08;;;1.10;;
34765;SDS011;20984;43.508;1.504;2022-08-21T09:56:34;1.33;;;0.70;;
34765;SDS011;20984;43.508;1.504;2022-08-21T09:59:23;3.88;;;0.95;;
34765;SDS011;20984;43.508;1.504;2022-08-21T10:01:59;1.17;;;0.88;;
34765;SDS011;20984;43.508;1.504;2022-08-21T10:04:28;0.95;;;0.75;;
34765;SDS011;20984;43.508;1.504;2022-08-21T10:07:07;2.08;;;0.73;;
34765;SDS011;20984;43.508;1.504;2022-08-21T10:09:33;2.13;;;0.90;;
34765;SDS011;20984;43.508;1.504;2022-08-21T10:12:13;1.10;;;0.80;;
34765;SDS011;20984;43.508;1.504;2022-08-21T10:20:21;1.65;;;1.10;;
34765;SDS011;20984;43.508;1.504;2022-08-21T10:25:45;1.30;;;0.90;;
34765;SDS011;20984;43.508;1.504;2022-08-21T10:28:20;2.60;;;0.60;;
34765;SDS011;20984;43.508;1.504;2022-08-21T10:30:57;1.25;;;0.68;;
34765;SDS011;20984;43.508;1.504;2022-08-21T10:39:13;1.88;;;0.73;;
34765;SDS011;20984;43.508;1.504;2022-08-21T10:48:27;1.63;;;0.80;;
34765;SDS011;20984;43.508;1.504;2022-08-21T10:51:10;1.95;;;0.80;;
34765;SDS011;20984;43.508;1.504;2022-08-21T10:53:45;0.98;;;0.75;;
34765;SDS011;20984;43.508;1.504;2022-08-21T10:56:17;0.85;;;0.63;;
34765;SDS011;20984;43.508;1.504;2022-08-21T10:58:56;1.80;;;0.70;;
34765;SDS011;20984;43.508;1.504;2022-08-21T11:01:34;2.25;;;0.80;;
34765;SDS011;20984;43.508;1.504;2022-08-21T11:04:19;3.38;;;0.80;;
34765;SDS011;20984;43.508;1.504;2022-08-21T11:06:52;1.27;;;0.73;;
34765;SDS011;20984;43.508;1.504;2022-08-21T11:09:24;1.67;;;0.80;;
34765;SDS011;20984;43.508;1.504;2022-08-21T11:14:54;1.48;;;0.57;;
34765;SDS011;20984;43.508;1.504;2022-08-21T11:17:30;2.63;;;0.93;;
34765;SDS011;20984;43.508;1.504;2022-08-21T11:20:08;1.05;;;0.70;;
34765;SDS011;20984;43.508;1.504;2022-08-21T11:25:17;0.65;;;0.57;;
34765;SDS011;20984;43.508;1.504;2022-08-21T11:28:01;1.08;;;0.77;;
34765;SDS011;20984;43.508;1.504;2022-08-21T11:39:19;1.08;;;0.70;;
34765;SDS011;20984;43.508;1.504;2022-08-21T11:42:23;2.00;;;0.90;;
34765;SDS011;20984;43.508;1.504;2022-08-21T11:44:52;1.02;;;0.68;;
34765;SDS011;20984;43.508;1.504;2022-08-21T11:47:54;1.55;;;0.80;;
34765;SDS011;20984;43.508;1.504;2022-08-21T11:50:20;1.40;;;0.63;;
34765;SDS011;20984;43.508;1.504;2022-08-21T11:55:31;1.15;;;0.73;;
34765;SDS011;20984;43.508;1.504;2022-08-21T11:58:06;1.23;;;0.80;;
34765;SDS011;20984;43.508;1.504;2022-08-21T12:00:47;4.47;;;0.70;;
34765;SDS011;20984;43.508;1.504;2022-08-21T12:03:28;1.38;;;0.73;;
34765;SDS011;20984;43.508;1.504;2022-08-21T12:05:58;1.73;;;0.70;;
34765;SDS011;20984;43.508;1.504;2022-08-21T12:08:37;2.17;;;0.85;;
34765;SDS011;20984;43.508;1.504;2022-08-21T12:13:57;1.95;;;1.05;;
34765;SDS011;20984;43.508;1.504;2022-08-21T12:16:37;1.23;;;0.65;;
34765;SDS011;20984;43.508;1.504;2022-08-21T12:19:11;2.40;;;0.70;;
34765;SDS011;20984;43.508;1.504;2022-08-21T12:21:47;1.05;;;0.80;;
34765;SDS011;20984;43.508;1.504;2022-08-21T12:29:27;1.42;;;0.73;;
34765;SDS011;20984;43.508;1.504;2022-08-21T12:32:02;0.75;;;0.60;;
34765;SDS011;20984;43.508;1.504;2022-08-21T12:34:51;0.70;;;0.52;;
34765;SDS011;20984;43.508;1.504;2022-08-21T12:37:25;1.77;;;0.75;;
34765;SDS011;20984;43.508;1.504;2022-08-21T12:42:44;3.00;;;0.77;;
34765;SDS011;20984;43.508;1.504;2022-08-21T12:45:28;1.40;;;0.93;;
34765;SDS011;20984;43.508;1.504;2022-08-21T12:48:10;3.17;;;0.90;;
34765;SDS011;20984;43.508;1.504;2022-08-21T12:50:46;0.88;;;0.60;;
34765;SDS011;20984;43.508;1.504;2022-08-21T12:56:17;3.63;;;0.82;;
34765;SDS011;20984;43.508;1.504;2022-08-21T12:58:46;2.97;;;0.90;;
34765;SDS011;20984;43.508;1.504;2022-08-21T13:01:27;1.27;;;0.70;;
34765;SDS011;20984;43.508;1.504;2022-08-21T13:03:59;0.90;;;0.70;;
34765;SDS011;20984;43.508;1.504;2022-08-21T13:06:29;2.53;;;0.95;;
34765;SDS011;20984;43.508;1.504;2022-08-21T13:09:04;1.27;;;0.82;;
34765;SDS011;20984;43.508;1.504;2022-08-21T13:11:33;1.60;;;0.95;;
34765;SDS011;20984;43.508;1.504;2022-08-21T13:14:00;1.23;;;0.82;;
34765;SDS011;20984;43.508;1.504;2022-08-21T13:16:28;1.65;;;0.80;;
34765;SDS011;20984;43.508;1.504;2022-08-21T13:18:57;0.70;;;0.60;;
34765;SDS011;20984;43.508;1.504;2022-08-21T13:21:32;3.53;;;0.70;;
34765;SDS011;20984;43.508;1.504;2022-08-21T13:26:48;0.80;;;0.60;;
34765;SDS011;20984;43.508;1.504;2022-08-21T13:29:20;1.35;;;0.70;;
34765;SDS011;20984;43.508;1.504;2022-08-21T13:32:00;1.20;;;0.80;;
34765;SDS011;20984;43.508;1.504;2022-08-21T13:34:29;1.95;;;0.80;;
34765;SDS011;20984;43.508;1.504;2022-08-21T13:37:00;1.55;;;0.88;;
34765;SDS011;20984;43.508;1.504;2022-08-21T13:39:29;1.52;;;0.90;;
34765;SDS011;20984;43.508;1.504;2022-08-21T13:41:57;1.67;;;0.80;;
34765;SDS011;20984;43.508;1.504;2022-08-21T13:44:44;1.00;;;0.70;;
34765;SDS011;20984;43.508;1.504;2022-08-21T13:47:13;1.77;;;0.82;;
34765;SDS011;20984;43.508;1.504;2022-08-21T13:49:42;1.88;;;0.90;;
34765;SDS011;20984;43.508;1.504;2022-08-21T13:52:22;1.13;;;0.88;;
34765;SDS011;20984;43.508;1.504;2022-08-21T13:54:58;2.63;;;1.00;;
34765;SDS011;20984;43.508;1.504;2022-08-21T13:57:29;1.25;;;0.90;;
34765;SDS011;20984;43.508;1.504;2022-08-21T14:02:38;2.03;;;0.90;;
34765;SDS011;20984;43.508;1.504;2022-08-21T14:05:07;2.17;;;0.80;;
34765;SDS011;20984;43.508;1.504;2022-08-21T14:07:40;2.03;;;0.75;;
34765;SDS011;20984;43.508;1.504;2022-08-21T14:10:14;2.05;;;0.90;;
34765;SDS011;20984;43.508;1.504;2022-08-21T14:12:45;3.35;;;1.13;;
34765;SDS011;20984;43.508;1.504;2022-08-21T14:15:14;1.42;;;0.93;;
34765;SDS011;20984;43.508;1.504;2022-08-21T14:17:42;2.03;;;1.10;;
34765;SDS011;20984;43.508;1.504;2022-08-21T14:20:10;2.80;;;1.27;;
34765;SDS011;20984;43.508;1.504;2022-08-21T14:27:49;2.40;;;1.10;;
34765;SDS011;20984;43.508;1.504;2022-08-21T14:30:19;3.50;;;1.40;;
34765;SDS011;20984;43.508;1.504;2022-08-21T14:33:03;1.80;;;1.00;;
34765;SDS011;20984;43.508;1.504;2022-08-21T14:35:34;2.95;;;1.17;;
34765;SDS011;20984;43.508;1.504;2022-08-21T14:38:00;1.98;;;1.02;;
34765;SDS011;20984;43.508;1.504;2022-08-21T14:40:26;3.25;;;0.90;;
34765;SDS011;20984;43.508;1.504;2022-08-21T14:42:52;2.10;;;1.00;;
34765;SDS011;20984;43.508;1.504;2022-08-21T14:45:23;3.85;;;1.42;;
34765;SDS011;20984;43.508;1.504;2022-08-21T14:47:52;2.30;;;1.30;;
34765;SDS011;20984;43.508;1.504;2022-08-21T14:50:18;3.25;;;1.02;;
34765;SDS011;20984;43.508;1.504;2022-08-21T14:52:44;2.10;;;1.00;;
34765;SDS011;20984;43.508;1.504;2022-08-21T14:55:11;1.38;;;0.98;;
34765;SDS011;20984;43.508;1.504;2022-08-21T15:00:11;3.38;;;1.48;;
34765;SDS011;20984;43.508;1.504;2022-08-21T15:02:39;1.80;;;1.13;;
34765;SDS011;20984;43.508;1.504;2022-08-21T15:05:05;3.53;;;1.08;;
34765;SDS011;20984;43.508;1.504;2022-08-21T15:07:31;2.38;;;1.50;;
34765;SDS011;20984;43.508;1.504;2022-08-21T15:09:57;3.40;;;1.40;;
34765;SDS011;20984;43.508;1.504;2022-08-21T15:12:23;2.70;;;1.33;;
34765;SDS011;20984;43.508;1.504;2022-08-21T15:14:50;3.63;;;1.98;;
34765;SDS011;20984;43.508;1.504;2022-08-21T15:17:17;2.67;;;1.45;;
34765;SDS011;20984;43.508;1.504;2022-08-21T15:19:44;2.80;;;1.30;;
34765;SDS011;20984;43.508;1.504;2022-08-21T15:22:10;4.78;;;1.85;;
34765;SDS011;20984;43.508;1.504;2022-08-21T15:24:35;2.45;;;1.60;;
34765;SDS011;20984;43.508;1.504;2022-08-21T15:27:02;4.45;;;1.92;;
34765;SDS011;20984;43.508;1.504;2022-08-21T15:29:31;3.60;;;1.27;;
34765;SDS011;20984;43.508;1.504;2022-08-21T15:31:58;1.85;;;1.27;;
34765;SDS011;20984;43.508;1.504;2022-08-21T15:34:40;2.05;;;1.38;;
34765;SDS011;20984;43.508;1.504;2022-08-21T15:37:06;2.95;;;1.42;;
34765;SDS011;20984;43.508;1.504;2022-08-21T15:39:33;2.38;;;1.30;;
34765;SDS011;20984;43.508;1.504;2022-08-21T15:42:00;2.10;;;1.17;;
34765;SDS011;20984;43.508;1.504;2022-08-21T15:44:27;3.42;;;1.13;;
34765;SDS011;20984;43.508;1.504;2022-08-21T15:46:54;1.55;;;1.00;;
34765;SDS011;20984;43.508;1.504;2022-08-21T15:49:20;2.22;;;1.23;;
34765;SDS011;20984;43.508;1.504;2022-08-21T15:51:46;2.60;;;1.30;;
34765;SDS011;20984;43.508;1.504;2022-08-21T15:54:12;2.55;;;1.40;;
34765;SDS011;20984;43.508;1.504;2022-08-21T15:56:38;3.67;;;1.52;;
34765;SDS011;20984;43.508;1.504;2022-08-21T15:59:08;2.40;;;1.67;;
34765;SDS011;20984;43.508;1.504;2022-08-21T16:01:39;3.25;;;1.60;;
34765;SDS011;20984;43.508;1.504;2022-08-21T16:04:05;2.78;;;1.40;;
34765;SDS011;20984;43.508;1.504;2022-08-21T16:06:32;2.38;;;1.38;;
34765;SDS011;20984;43.508;1.504;2022-08-21T16:08:58;1.83;;;1.45;;
34765;SDS011;20984;43.508;1.504;2022-08-21T16:11:24;2.70;;;1.77;;
34765;SDS011;20984;43.508;1.504;2022-08-21T16:13:51;2.20;;;1.55;;
34765;SDS011;20984;43.508;1.504;2022-08-21T16:16:18;3.35;;;1.58;;
34765;SDS011;20984;43.508;1.504;2022-08-21T16:18:46;3.53;;;1.90;;
34765;SDS011;20984;43.508;1.504;2022-08-21T16:21:13;3.65;;;1.60;;
34765;SDS011;20984;43.508;1.504;2022-08-21T16:23:39;3.42;;;1.95;;
34765;SDS011;20984;43.508;1.504;2022-08-21T16:26:06;2.40;;;1.33;;
34765;SDS011;20984;43.508;1.504;2022-08-21T16:28:33;3.88;;;1.38;;
34765;SDS011;20984;43.508;1.504;2022-08-21T16:31:01;2.28;;;1.30;;
34765;SDS011;20984;43.508;1.504;2022-08-21T16:33:35;2.92;;;1.60;;
34765;SDS011;20984;43.508;1.504;2022-08-21T16:36:04;3.22;;;1.63;;